sensor_id;sensor_type;location;lat;lon;timestamp;temperature;humidity
40952;DHT22;26682;51.660;19.338;2022-10-16T00:00:13;12.90;99.90
40952;DHT22;26682;51.660;19.338;2022-10-16T00:02:19;12.90;99.90
40952;DHT22;26682;51.660;19.338;2022-10-16T00:04:05;12.80;99.90
40952;DHT22;26682;51.660;19.338;2022-10-16T00:05:51;12.80;99.90
40952;DHT22;26682;51.660;19.338;2022-10-16T00:07:36;12.80;99.90
40952;DHT22;26682;51.660;19.338;2022-10-16T00:09:23;12.80;99.90
40952;DHT22;26682;51.660;19.338;2022-10-16T00:11:17;12.70;99.90
40952;DHT22;26682;51.660;19.338;2022-10-16T00:13:04;12.70;99.90
40952;DHT22;26682;51.660;19.338;2022-10-16T00:14:50;12.70;99.90
40952;DHT22;26682;51.660;19.338;2022-10-16T00:16:36;12.60;99.90
40952;DHT22;26682;51.660;19.338;2022-10-16T00:18:23;12.60;99.90
40952;DHT22;26682;51.660;19.338;2022-10-16T00:20:09;12.60;99.90
40952;DHT22;26682;51.660;19.338;2022-10-16T00:21:55;12.50;99.90
40952;DHT22;26682;51.660;19.338;2022-10-16T00:23:41;12.50;99.90
40952;DHT22;26682;51.660;19.338;2022-10-16T00:25:28;12.50;99.90
40952;DHT22;26682;51.660;19.338;2022-10-16T00:27:14;12.50;99.90
40952;DHT22;26682;51.660;19.338;2022-10-16T00:29:00;12.50;99.90
40952;DHT22;26682;51.660;19.338;2022-10-16T00:30:46;12.40;99.90
40952;DHT22;26682;51.660;19.338;2022-10-16T00:32:32;12.40;99.90
40952;DHT22;26682;51.660;19.338;2022-10-16T00:34:18;12.30;99.90
40952;DHT22;26682;51.660;19.338;2022-10-16T00:36:06;12.30;99.90
40952;DHT22;26682;51.660;19.338;2022-10-16T00:37:52;12.30;99.90
40952;DHT22;26682;51.660;19.338;2022-10-16T00:39:38;12.20;99.90
40952;DHT22;26682;51.660;19.338;2022-10-16T00:41:25;12.20;99.90
40952;DHT22;26682;51.660;19.338;2022-10-16T00:43:39;12.20;99.90
40952;DHT22;26682;51.660;19.338;2022-10-16T00:45:19;12.10;99.90
40952;DHT22;26682;51.660;19.338;2022-10-16T00:47:06;12.10;99.90
40952;DHT22;26682;51.660;19.338;2022-10-16T00:49:05;12.10;99.90
40952;DHT22;26682;51.660;19.338;2022-10-16T00:50:52;12.00;99.90
40952;DHT22;26682;51.660;19.338;2022-10-16T00:52:41;12.00;99.90
40952;DHT22;26682;51.660;19.338;2022-10-16T00:54:31;12.00;99.90
40952;DHT22;26682;51.660;19.338;2022-10-16T00:56:18;12.00;99.90
40952;DHT22;26682;51.660;19.338;2022-10-16T00:58:04;12.00;99.90
40952;DHT22;26682;51.660;19.338;2022-10-16T00:59:50;12.00;99.90
40952;DHT22;26682;51.660;19.338;2022-10-16T01:01:36;11.90;99.90
40952;DHT22;26682;51.660;19.338;2022-10-16T01:03:26;11.90;99.90
40952;DHT22;26682;51.660;19.338;2022-10-16T01:05:12;11.90;99.90
40952;DHT22;26682;51.660;19.338;2022-10-16T01:11:44;11.90;99.90
40952;DHT22;26682;51.660;19.338;2022-10-16T01:13:42;11.90;99.90
40952;DHT22;26682;51.660;19.338;2022-10-16T01:15:44;11.80;99.90
40952;DHT22;26682;51.660;19.338;2022-10-16T01:17:51;11.80;99.90
40952;DHT22;26682;51.660;19.338;2022-10-16T01:21:51;11.80;99.90
40952;DHT22;26682;51.660;19.338;2022-10-16T01:27:47;11.70;99.90
40952;DHT22;26682;51.660;19.338;2022-10-16T01:31:26;11.70;99.90
40952;DHT22;26682;51.660;19.338;2022-10-16T01:33:29;11.70;99.90
40952;DHT22;26682;51.660;19.338;2022-10-16T01:35:24;11.60;99.90
40952;DHT22;26682;51.660;19.338;2022-10-16T01:37:15;11.60;99.90
40952;DHT22;26682;51.660;19.338;2022-10-16T01:39:02;11.60;99.90
40952;DHT22;26682;51.660;19.338;2022-10-16T01:40:54;11.50;99.90
40952;DHT22;26682;51.660;19.338;2022-10-16T01:42:46;11.50;99.90
40952;DHT22;26682;51.660;19.338;2022-10-16T01:44:34;11.50;99.90
40952;DHT22;26682;51.660;19.338;2022-10-16T01:46:22;11.50;99.90
40952;DHT22;26682;51.660;19.338;2022-10-16T01:48:11;11.50;99.90
40952;DHT22;26682;51.660;19.338;2022-10-16T01:49:58;11.50;99.90
40952;DHT22;26682;51.660;19.338;2022-10-16T01:51:48;11.50;99.90
40952;DHT22;26682;51.660;19.338;2022-10-16T01:53:35;11.50;99.90
40952;DHT22;26682;51.660;19.338;2022-10-16T01:55:28;11.40;99.90
40952;DHT22;26682;51.660;19.338;2022-10-16T01:57:16;11.40;99.90
40952;DHT22;26682;51.660;19.338;2022-10-16T01:59:13;11.40;99.90
40952;DHT22;26682;51.660;19.338;2022-10-16T02:01:02;11.40;99.90
40952;DHT22;26682;51.660;19.338;2022-10-16T02:02:51;11.40;99.90
40952;DHT22;26682;51.660;19.338;2022-10-16T02:04:46;11.40;99.90
40952;DHT22;26682;51.660;19.338;2022-10-16T02:06:33;11.40;99.90
40952;DHT22;26682;51.660;19.338;2022-10-16T02:08:21;11.30;99.90
40952;DHT22;26682;51.660;19.338;2022-10-16T02:10:08;11.30;99.90
40952;DHT22;26682;51.660;19.338;2022-10-16T02:11:57;11.30;99.90
40952;DHT22;26682;51.660;19.338;2022-10-16T02:14:01;11.30;99.90
40952;DHT22;26682;51.660;19.338;2022-10-16T02:15:48;11.30;99.90
40952;DHT22;26682;51.660;19.338;2022-10-16T02:17:34;11.30;99.90
40952;DHT22;26682;51.660;19.338;2022-10-16T02:19:20;11.30;99.90
40952;DHT22;26682;51.660;19.338;2022-10-16T02:21:19;11.30;99.90
40952;DHT22;26682;51.660;19.338;2022-10-16T02:23:11;11.30;99.90
40952;DHT22;26682;51.660;19.338;2022-10-16T02:24:58;11.30;99.90
40952;DHT22;26682;51.660;19.338;2022-10-16T02:27:11;11.30;99.90
40952;DHT22;26682;51.660;19.338;2022-10-16T02:29:02;11.20;99.90
40952;DHT22;26682;51.660;19.338;2022-10-16T02:31:01;11.30;99.90
40952;DHT22;26682;51.660;19.338;2022-10-16T02:32:48;11.30;99.90
40952;DHT22;26682;51.660;19.338;2022-10-16T02:34:35;11.30;99.90
40952;DHT22;26682;51.660;19.338;2022-10-16T02:36:22;11.20;99.90
40952;DHT22;26682;51.660;19.338;2022-10-16T02:38:09;11.20;99.90
40952;DHT22;26682;51.660;19.338;2022-10-16T02:39:58;11.30;99.90
40952;DHT22;26682;51.660;19.338;2022-10-16T02:41:44;11.30;99.90
40952;DHT22;26682;51.660;19.338;2022-10-16T02:43:30;11.30;99.90
40952;DHT22;26682;51.660;19.338;2022-10-16T02:45:16;11.30;99.90
40952;DHT22;26682;51.660;19.338;2022-10-16T02:47:03;11.30;99.90
40952;DHT22;26682;51.660;19.338;2022-10-16T02:48:48;11.30;99.90
40952;DHT22;26682;51.660;19.338;2022-10-16T02:50:35;11.30;99.90
40952;DHT22;26682;51.660;19.338;2022-10-16T02:52:20;11.30;99.90
40952;DHT22;26682;51.660;19.338;2022-10-16T02:54:06;11.30;99.90
40952;DHT22;26682;51.660;19.338;2022-10-16T02:55:52;11.30;99.90
40952;DHT22;26682;51.660;19.338;2022-10-16T02:57:38;11.40;99.90
40952;DHT22;26682;51.660;19.338;2022-10-16T02:59:25;11.40;99.90
40952;DHT22;26682;51.660;19.338;2022-10-16T03:01:11;11.40;99.90
40952;DHT22;26682;51.660;19.338;2022-10-16T03:02:58;11.40;99.90
40952;DHT22;26682;51.660;19.338;2022-10-16T03:04:44;11.50;99.90
40952;DHT22;26682;51.660;19.338;2022-10-16T03:06:30;11.50;99.90
40952;DHT22;26682;51.660;19.338;2022-10-16T03:08:15;11.50;99.90
40952;DHT22;26682;51.660;19.338;2022-10-16T03:10:02;11.50;99.90
40952;DHT22;26682;51.660;19.338;2022-10-16T03:11:48;11.50;99.90
40952;DHT22;26682;51.660;19.338;2022-10-16T03:13:34;11.60;99.90
40952;DHT22;26682;51.660;19.338;2022-10-16T03:15:20;11.60;99.90
40952;DHT22;26682;51.660;19.338;2022-10-16T03:17:06;11.60;99.90
40952;DHT22;26682;51.660;19.338;2022-10-16T03:18:52;11.60;99.90
40952;DHT22;26682;51.660;19.338;2022-10-16T03:20:38;11.60;99.90
40952;DHT22;26682;51.660;19.338;2022-10-16T03:22:24;11.60;99.90
40952;DHT22;26682;51.660;19.338;2022-10-16T03:24:10;11.70;99.90
40952;DHT22;26682;51.660;19.338;2022-10-16T03:25:55;11.70;99.90
40952;DHT22;26682;51.660;19.338;2022-10-16T03:27:41;11.70;99.90
40952;DHT22;26682;51.660;19.338;2022-10-16T03:29:28;11.70;99.90
40952;DHT22;26682;51.660;19.338;2022-10-16T03:31:14;11.70;99.90
40952;DHT22;26682;51.660;19.338;2022-10-16T03:33:01;11.70;99.90
40952;DHT22;26682;51.660;19.338;2022-10-16T03:34:46;11.80;99.90
40952;DHT22;26682;51.660;19.338;2022-10-16T03:36:32;11.80;99.90
40952;DHT22;26682;51.660;19.338;2022-10-16T03:38:18;11.70;99.90
40952;DHT22;26682;51.660;19.338;2022-10-16T03:40:05;11.80;99.90
40952;DHT22;26682;51.660;19.338;2022-10-16T03:41:51;11.80;99.90
40952;DHT22;26682;51.660;19.338;2022-10-16T03:43:37;11.80;99.90
40952;DHT22;26682;51.660;19.338;2022-10-16T03:45:23;11.90;99.90
40952;DHT22;26682;51.660;19.338;2022-10-16T03:47:09;11.90;99.90
40952;DHT22;26682;51.660;19.338;2022-10-16T03:48:55;11.90;99.90
40952;DHT22;26682;51.660;19.338;2022-10-16T03:50:41;11.90;99.90
40952;DHT22;26682;51.660;19.338;2022-10-16T03:52:27;11.90;99.90
40952;DHT22;26682;51.660;19.338;2022-10-16T03:54:13;11.90;99.90
40952;DHT22;26682;51.660;19.338;2022-10-16T03:55:59;11.90;99.90
40952;DHT22;26682;51.660;19.338;2022-10-16T03:57:46;11.90;99.90
40952;DHT22;26682;51.660;19.338;2022-10-16T03:59:32;11.90;99.90
40952;DHT22;26682;51.660;19.338;2022-10-16T04:01:18;12.00;99.90
40952;DHT22;26682;51.660;19.338;2022-10-16T04:03:04;12.00;99.90
40952;DHT22;26682;51.660;19.338;2022-10-16T04:04:50;12.00;99.90
40952;DHT22;26682;51.660;19.338;2022-10-16T04:06:36;12.00;99.90
40952;DHT22;26682;51.660;19.338;2022-10-16T04:08:22;12.00;99.90
40952;DHT22;26682;51.660;19.338;2022-10-16T04:10:09;12.00;99.90
40952;DHT22;26682;51.660;19.338;2022-10-16T04:11:55;12.00;99.90
40952;DHT22;26682;51.660;19.338;2022-10-16T04:13:40;12.00;99.90
40952;DHT22;26682;51.660;19.338;2022-10-16T04:15:27;12.10;99.90
40952;DHT22;26682;51.660;19.338;2022-10-16T04:17:13;12.10;99.90
40952;DHT22;26682;51.660;19.338;2022-10-16T04:18:58;12.10;99.90
40952;DHT22;26682;51.660;19.338;2022-10-16T04:20:44;12.20;99.90
40952;DHT22;26682;51.660;19.338;2022-10-16T04:22:30;12.20;99.90
40952;DHT22;26682;51.660;19.338;2022-10-16T04:24:16;12.20;99.90
40952;DHT22;26682;51.660;19.338;2022-10-16T04:26:02;12.30;99.90
40952;DHT22;26682;51.660;19.338;2022-10-16T04:27:48;12.30;99.90
40952;DHT22;26682;51.660;19.338;2022-10-16T04:29:34;12.30;99.90
40952;DHT22;26682;51.660;19.338;2022-10-16T04:31:20;12.30;99.90
40952;DHT22;26682;51.660;19.338;2022-10-16T04:33:09;12.40;99.90
40952;DHT22;26682;51.660;19.338;2022-10-16T04:34:54;12.40;99.90
40952;DHT22;26682;51.660;19.338;2022-10-16T04:36:40;12.30;99.90
40952;DHT22;26682;51.660;19.338;2022-10-16T04:38:27;12.30;99.90
40952;DHT22;26682;51.660;19.338;2022-10-16T04:40:14;12.40;99.90
40952;DHT22;26682;51.660;19.338;2022-10-16T04:42:00;12.40;99.90
40952;DHT22;26682;51.660;19.338;2022-10-16T04:43:46;12.40;99.90
40952;DHT22;26682;51.660;19.338;2022-10-16T04:45:31;12.40;99.90
40952;DHT22;26682;51.660;19.338;2022-10-16T04:47:18;12.40;99.90
40952;DHT22;26682;51.660;19.338;2022-10-16T04:49:03;12.40;99.90
40952;DHT22;26682;51.660;19.338;2022-10-16T04:50:49;12.40;99.90
40952;DHT22;26682;51.660;19.338;2022-10-16T04:52:35;12.40;99.90
40952;DHT22;26682;51.660;19.338;2022-10-16T04:54:21;12.40;99.90
40952;DHT22;26682;51.660;19.338;2022-10-16T04:56:07;12.40;99.90
40952;DHT22;26682;51.660;19.338;2022-10-16T04:57:54;12.40;99.90
40952;DHT22;26682;51.660;19.338;2022-10-16T04:59:40;12.50;99.90
40952;DHT22;26682;51.660;19.338;2022-10-16T05:01:45;12.50;99.90
40952;DHT22;26682;51.660;19.338;2022-10-16T05:03:31;12.50;99.90
40952;DHT22;26682;51.660;19.338;2022-10-16T05:05:17;12.50;99.90
40952;DHT22;26682;51.660;19.338;2022-10-16T05:07:05;12.40;99.90
40952;DHT22;26682;51.660;19.338;2022-10-16T05:08:51;12.40;99.90
40952;DHT22;26682;51.660;19.338;2022-10-16T05:10:36;12.40;99.90
40952;DHT22;26682;51.660;19.338;2022-10-16T05:12:22;12.50;99.90
40952;DHT22;26682;51.660;19.338;2022-10-16T05:14:09;12.50;99.90
40952;DHT22;26682;51.660;19.338;2022-10-16T05:15:55;12.50;99.90
40952;DHT22;26682;51.660;19.338;2022-10-16T05:17:40;12.50;99.90
40952;DHT22;26682;51.660;19.338;2022-10-16T05:19:27;12.50;99.90
40952;DHT22;26682;51.660;19.338;2022-10-16T05:21:13;12.50;99.90
40952;DHT22;26682;51.660;19.338;2022-10-16T05:22:58;12.50;99.90
40952;DHT22;26682;51.660;19.338;2022-10-16T05:24:45;12.50;99.90
40952;DHT22;26682;51.660;19.338;2022-10-16T05:26:30;12.50;99.90
40952;DHT22;26682;51.660;19.338;2022-10-16T05:28:16;12.50;99.90
40952;DHT22;26682;51.660;19.338;2022-10-16T05:30:03;12.50;99.90
40952;DHT22;26682;51.660;19.338;2022-10-16T05:31:52;12.50;99.90
40952;DHT22;26682;51.660;19.338;2022-10-16T05:33:38;12.50;99.90
40952;DHT22;26682;51.660;19.338;2022-10-16T05:35:24;12.50;99.90
40952;DHT22;26682;51.660;19.338;2022-10-16T05:37:11;12.50;99.90
40952;DHT22;26682;51.660;19.338;2022-10-16T05:38:57;12.50;99.90
40952;DHT22;26682;51.660;19.338;2022-10-16T05:40:43;12.60;99.90
40952;DHT22;26682;51.660;19.338;2022-10-16T05:42:29;12.60;99.90
40952;DHT22;26682;51.660;19.338;2022-10-16T05:44:16;12.60;99.90
40952;DHT22;26682;51.660;19.338;2022-10-16T05:46:04;12.60;99.90
40952;DHT22;26682;51.660;19.338;2022-10-16T05:47:50;12.60;99.90
40952;DHT22;26682;51.660;19.338;2022-10-16T05:49:36;12.70;99.90
40952;DHT22;26682;51.660;19.338;2022-10-16T05:51:24;12.70;99.90
40952;DHT22;26682;51.660;19.338;2022-10-16T05:53:10;12.70;99.90
40952;DHT22;26682;51.660;19.338;2022-10-16T05:54:56;12.70;99.90
40952;DHT22;26682;51.660;19.338;2022-10-16T05:56:42;12.80;99.90
40952;DHT22;26682;51.660;19.338;2022-10-16T05:58:30;12.80;99.90
40952;DHT22;26682;51.660;19.338;2022-10-16T06:00:16;12.80;99.90
40952;DHT22;26682;51.660;19.338;2022-10-16T06:02:02;12.80;99.90
40952;DHT22;26682;51.660;19.338;2022-10-16T06:03:50;12.80;99.90
40952;DHT22;26682;51.660;19.338;2022-10-16T06:05:36;12.80;99.90
40952;DHT22;26682;51.660;19.338;2022-10-16T06:07:23;12.80;99.90
40952;DHT22;26682;51.660;19.338;2022-10-16T06:09:09;12.80;99.90
40952;DHT22;26682;51.660;19.338;2022-10-16T06:11:03;12.80;99.90
40952;DHT22;26682;51.660;19.338;2022-10-16T06:12:50;12.80;99.90
40952;DHT22;26682;51.660;19.338;2022-10-16T06:14:36;12.80;99.90
40952;DHT22;26682;51.660;19.338;2022-10-16T06:16:23;12.80;99.90
40952;DHT22;26682;51.660;19.338;2022-10-16T06:18:09;12.80;99.90
40952;DHT22;26682;51.660;19.338;2022-10-16T06:19:55;12.80;99.90
40952;DHT22;26682;51.660;19.338;2022-10-16T06:21:41;12.90;99.90
40952;DHT22;26682;51.660;19.338;2022-10-16T06:23:28;12.90;99.90
40952;DHT22;26682;51.660;19.338;2022-10-16T06:25:14;12.90;99.90
40952;DHT22;26682;51.660;19.338;2022-10-16T06:27:00;13.00;99.90
40952;DHT22;26682;51.660;19.338;2022-10-16T06:28:47;13.00;99.90
40952;DHT22;26682;51.660;19.338;2022-10-16T06:30:33;13.10;99.90
40952;DHT22;26682;51.660;19.338;2022-10-16T06:32:18;13.30;99.90
40952;DHT22;26682;51.660;19.338;2022-10-16T06:34:05;13.40;99.90
40952;DHT22;26682;51.660;19.338;2022-10-16T06:36:00;13.50;99.90
40952;DHT22;26682;51.660;19.338;2022-10-16T06:37:47;13.70;99.90
40952;DHT22;26682;51.660;19.338;2022-10-16T06:39:33;13.80;99.90
40952;DHT22;26682;51.660;19.338;2022-10-16T06:41:20;14.00;99.90
40952;DHT22;26682;51.660;19.338;2022-10-16T06:43:06;14.10;99.90
40952;DHT22;26682;51.660;19.338;2022-10-16T06:44:52;14.30;99.90
40952;DHT22;26682;51.660;19.338;2022-10-16T06:46:38;14.60;99.90
40952;DHT22;26682;51.660;19.338;2022-10-16T06:48:25;14.60;99.90
40952;DHT22;26682;51.660;19.338;2022-10-16T06:50:12;14.70;99.90
40952;DHT22;26682;51.660;19.338;2022-10-16T06:51:58;14.70;99.90
40952;DHT22;26682;51.660;19.338;2022-10-16T06:53:46;14.70;99.90
40952;DHT22;26682;51.660;19.338;2022-10-16T06:55:34;14.70;99.90
40952;DHT22;26682;51.660;19.338;2022-10-16T06:57:23;14.70;99.90
40952;DHT22;26682;51.660;19.338;2022-10-16T06:59:10;14.80;99.90
40952;DHT22;26682;51.660;19.338;2022-10-16T07:01:00;14.80;99.90
40952;DHT22;26682;51.660;19.338;2022-10-16T07:02:49;14.90;99.90
40952;DHT22;26682;51.660;19.338;2022-10-16T07:04:38;14.90;99.90
40952;DHT22;26682;51.660;19.338;2022-10-16T07:06:26;14.80;99.90
40952;DHT22;26682;51.660;19.338;2022-10-16T07:08:13;14.70;99.90
40952;DHT22;26682;51.660;19.338;2022-10-16T07:09:59;14.70;99.90
40952;DHT22;26682;51.660;19.338;2022-10-16T07:11:45;14.70;99.90
40952;DHT22;26682;51.660;19.338;2022-10-16T07:13:39;14.70;99.90
40952;DHT22;26682;51.660;19.338;2022-10-16T07:15:26;14.70;99.90
40952;DHT22;26682;51.660;19.338;2022-10-16T07:17:13;14.80;99.90
40952;DHT22;26682;51.660;19.338;2022-10-16T07:19:00;14.80;99.90
40952;DHT22;26682;51.660;19.338;2022-10-16T07:20:47;14.90;99.90
40952;DHT22;26682;51.660;19.338;2022-10-16T07:22:33;15.00;99.90
40952;DHT22;26682;51.660;19.338;2022-10-16T07:24:19;15.10;99.90
40952;DHT22;26682;51.660;19.338;2022-10-16T07:26:06;15.20;99.90
40952;DHT22;26682;51.660;19.338;2022-10-16T07:27:53;15.30;99.90
40952;DHT22;26682;51.660;19.338;2022-10-16T07:29:41;15.40;99.90
40952;DHT22;26682;51.660;19.338;2022-10-16T07:31:31;15.50;99.90
40952;DHT22;26682;51.660;19.338;2022-10-16T07:33:17;15.60;99.90
40952;DHT22;26682;51.660;19.338;2022-10-16T07:35:04;15.70;99.90
40952;DHT22;26682;51.660;19.338;2022-10-16T07:36:51;15.90;99.90
40952;DHT22;26682;51.660;19.338;2022-10-16T07:38:38;15.90;99.90
40952;DHT22;26682;51.660;19.338;2022-10-16T07:40:24;15.90;99.90
40952;DHT22;26682;51.660;19.338;2022-10-16T07:42:12;16.00;99.90
40952;DHT22;26682;51.660;19.338;2022-10-16T07:43:59;16.00;99.90
40952;DHT22;26682;51.660;19.338;2022-10-16T07:45:48;16.10;99.90
40952;DHT22;26682;51.660;19.338;2022-10-16T07:47:35;16.20;99.90
40952;DHT22;26682;51.660;19.338;2022-10-16T07:49:21;16.20;99.90
40952;DHT22;26682;51.660;19.338;2022-10-16T07:51:07;16.20;99.90
40952;DHT22;26682;51.660;19.338;2022-10-16T07:53:00;16.20;99.90
40952;DHT22;26682;51.660;19.338;2022-10-16T07:54:57;16.10;99.90
40952;DHT22;26682;51.660;19.338;2022-10-16T07:56:43;16.00;99.90
40952;DHT22;26682;51.660;19.338;2022-10-16T07:58:29;16.00;99.90
40952;DHT22;26682;51.660;19.338;2022-10-16T08:00:15;16.00;99.90
40952;DHT22;26682;51.660;19.338;2022-10-16T08:02:02;16.00;99.90
40952;DHT22;26682;51.660;19.338;2022-10-16T08:03:50;15.90;99.90
40952;DHT22;26682;51.660;19.338;2022-10-16T08:05:36;16.00;99.90
40952;DHT22;26682;51.660;19.338;2022-10-16T08:07:22;16.00;99.90
40952;DHT22;26682;51.660;19.338;2022-10-16T08:09:09;16.00;99.90
40952;DHT22;26682;51.660;19.338;2022-10-16T08:10:55;16.00;99.90
40952;DHT22;26682;51.660;19.338;2022-10-16T08:12:41;16.00;99.90
40952;DHT22;26682;51.660;19.338;2022-10-16T08:14:26;16.10;99.90
40952;DHT22;26682;51.660;19.338;2022-10-16T08:16:13;16.10;99.90
40952;DHT22;26682;51.660;19.338;2022-10-16T08:18:00;16.10;99.90
40952;DHT22;26682;51.660;19.338;2022-10-16T08:19:47;16.10;99.90
40952;DHT22;26682;51.660;19.338;2022-10-16T08:21:33;16.10;99.90
40952;DHT22;26682;51.660;19.338;2022-10-16T08:23:20;16.10;99.90
40952;DHT22;26682;51.660;19.338;2022-10-16T08:25:06;16.10;99.90
40952;DHT22;26682;51.660;19.338;2022-10-16T08:26:55;16.10;99.90
40952;DHT22;26682;51.660;19.338;2022-10-16T08:28:44;16.20;99.90
40952;DHT22;26682;51.660;19.338;2022-10-16T08:30:30;16.20;99.90
40952;DHT22;26682;51.660;19.338;2022-10-16T08:32:17;16.30;99.90
40952;DHT22;26682;51.660;19.338;2022-10-16T08:34:02;16.30;99.90
40952;DHT22;26682;51.660;19.338;2022-10-16T08:35:52;16.40;99.90
40952;DHT22;26682;51.660;19.338;2022-10-16T08:37:40;16.40;99.90
40952;DHT22;26682;51.660;19.338;2022-10-16T08:39:29;16.40;99.90
40952;DHT22;26682;51.660;19.338;2022-10-16T08:41:49;16.40;99.90
40952;DHT22;26682;51.660;19.338;2022-10-16T08:48:00;16.50;99.90
40952;DHT22;26682;51.660;19.338;2022-10-16T08:50:09;16.50;99.90
40952;DHT22;26682;51.660;19.338;2022-10-16T08:51:56;16.40;99.90
40952;DHT22;26682;51.660;19.338;2022-10-16T08:53:55;16.40;99.90
40952;DHT22;26682;51.660;19.338;2022-10-16T08:55:49;16.30;99.90
40952;DHT22;26682;51.660;19.338;2022-10-16T08:57:36;16.30;99.90
40952;DHT22;26682;51.660;19.338;2022-10-16T08:59:22;16.30;99.90
40952;DHT22;26682;51.660;19.338;2022-10-16T09:01:13;16.20;99.90
40952;DHT22;26682;51.660;19.338;2022-10-16T09:03:14;16.20;99.90
40952;DHT22;26682;51.660;19.338;2022-10-16T09:07:41;16.30;99.90
40952;DHT22;26682;51.660;19.338;2022-10-16T09:15:58;16.70;99.90
40952;DHT22;26682;51.660;19.338;2022-10-16T09:17:53;16.90;99.90
40952;DHT22;26682;51.660;19.338;2022-10-16T09:19:49;17.00;99.90
40952;DHT22;26682;51.660;19.338;2022-10-16T09:21:42;17.00;99.90
40952;DHT22;26682;51.660;19.338;2022-10-16T09:23:30;17.10;99.90
40952;DHT22;26682;51.660;19.338;2022-10-16T09:25:21;17.00;99.90
40952;DHT22;26682;51.660;19.338;2022-10-16T09:27:13;17.00;99.90
40952;DHT22;26682;51.660;19.338;2022-10-16T09:29:00;16.90;99.90
40952;DHT22;26682;51.660;19.338;2022-10-16T09:30:47;16.90;99.90
40952;DHT22;26682;51.660;19.338;2022-10-16T09:32:38;16.90;99.90
40952;DHT22;26682;51.660;19.338;2022-10-16T09:34:32;16.90;99.90
40952;DHT22;26682;51.660;19.338;2022-10-16T09:36:20;17.10;99.90
40952;DHT22;26682;51.660;19.338;2022-10-16T09:38:07;17.10;99.90
40952;DHT22;26682;51.660;19.338;2022-10-16T09:39:56;17.20;99.90
40952;DHT22;26682;51.660;19.338;2022-10-16T09:41:44;17.30;99.90
40952;DHT22;26682;51.660;19.338;2022-10-16T09:43:34;17.40;99.90
40952;DHT22;26682;51.660;19.338;2022-10-16T09:45:23;17.30;99.90
40952;DHT22;26682;51.660;19.338;2022-10-16T09:47:29;17.30;99.90
40952;DHT22;26682;51.660;19.338;2022-10-16T09:49:25;17.30;99.90
40952;DHT22;26682;51.660;19.338;2022-10-16T09:51:31;17.30;99.90
40952;DHT22;26682;51.660;19.338;2022-10-16T09:53:18;17.40;99.90
40952;DHT22;26682;51.660;19.338;2022-10-16T09:55:16;17.40;99.90
40952;DHT22;26682;51.660;19.338;2022-10-16T09:57:07;17.50;99.90
40952;DHT22;26682;51.660;19.338;2022-10-16T09:58:56;17.60;99.90
40952;DHT22;26682;51.660;19.338;2022-10-16T10:00:49;17.60;99.90
40952;DHT22;26682;51.660;19.338;2022-10-16T10:02:36;17.70;99.90
40952;DHT22;26682;51.660;19.338;2022-10-16T10:04:26;17.80;99.90
40952;DHT22;26682;51.660;19.338;2022-10-16T10:06:29;17.80;99.90
40952;DHT22;26682;51.660;19.338;2022-10-16T10:08:18;18.00;99.90
40952;DHT22;26682;51.660;19.338;2022-10-16T10:10:05;18.20;99.90
40952;DHT22;26682;51.660;19.338;2022-10-16T10:11:59;18.30;99.90
40952;DHT22;26682;51.660;19.338;2022-10-16T10:13:46;18.40;99.90
40952;DHT22;26682;51.660;19.338;2022-10-16T10:15:34;18.40;99.90
40952;DHT22;26682;51.660;19.338;2022-10-16T10:17:26;18.50;99.90
40952;DHT22;26682;51.660;19.338;2022-10-16T10:19:23;18.60;99.90
40952;DHT22;26682;51.660;19.338;2022-10-16T10:21:13;18.70;99.90
40952;DHT22;26682;51.660;19.338;2022-10-16T10:23:21;18.70;99.90
40952;DHT22;26682;51.660;19.338;2022-10-16T10:27:10;18.60;99.90
40952;DHT22;26682;51.660;19.338;2022-10-16T10:35:14;18.70;99.90
40952;DHT22;26682;51.660;19.338;2022-10-16T10:39:35;18.80;99.90
40952;DHT22;26682;51.660;19.338;2022-10-16T10:43:39;18.80;99.90
40952;DHT22;26682;51.660;19.338;2022-10-16T10:45:52;18.90;99.90
40952;DHT22;26682;51.660;19.338;2022-10-16T10:52:32;19.30;99.90
40952;DHT22;26682;51.660;19.338;2022-10-16T10:54:32;19.50;99.90
40952;DHT22;26682;51.660;19.338;2022-10-16T10:57:18;19.50;99.90
40952;DHT22;26682;51.660;19.338;2022-10-16T10:58:58;19.50;99.90
40952;DHT22;26682;51.660;19.338;2022-10-16T11:05:20;19.50;99.90
40952;DHT22;26682;51.660;19.338;2022-10-16T11:07:33;19.50;99.90
40952;DHT22;26682;51.660;19.338;2022-10-16T11:09:25;19.60;99.90
40952;DHT22;26682;51.660;19.338;2022-10-16T11:11:23;19.60;99.90
40952;DHT22;26682;51.660;19.338;2022-10-16T11:15:35;19.70;99.90
40952;DHT22;26682;51.660;19.338;2022-10-16T11:17:44;19.80;99.90
40952;DHT22;26682;51.660;19.338;2022-10-16T11:19:48;19.80;99.90
40952;DHT22;26682;51.660;19.338;2022-10-16T11:21:43;19.90;99.90
40952;DHT22;26682;51.660;19.338;2022-10-16T11:26:23;19.90;99.90
40952;DHT22;26682;51.660;19.338;2022-10-16T11:28:19;19.70;99.90
40952;DHT22;26682;51.660;19.338;2022-10-16T11:30:26;19.60;99.90
40952;DHT22;26682;51.660;19.338;2022-10-16T11:32:23;19.50;99.90
40952;DHT22;26682;51.660;19.338;2022-10-16T11:34:31;19.40;99.90
40952;DHT22;26682;51.660;19.338;2022-10-16T11:36:42;19.40;99.90
40952;DHT22;26682;51.660;19.338;2022-10-16T11:40:44;19.40;99.90
40952;DHT22;26682;51.660;19.338;2022-10-16T11:42:44;19.50;99.90
40952;DHT22;26682;51.660;19.338;2022-10-16T11:44:48;19.50;99.90
40952;DHT22;26682;51.660;19.338;2022-10-16T11:46:40;19.60;99.90
40952;DHT22;26682;51.660;19.338;2022-10-16T11:48:57;19.60;99.90
40952;DHT22;26682;51.660;19.338;2022-10-16T11:50:52;19.70;99.90
40952;DHT22;26682;51.660;19.338;2022-10-16T11:52:48;19.80;99.90
40952;DHT22;26682;51.660;19.338;2022-10-16T11:54:43;19.90;99.90
40952;DHT22;26682;51.660;19.338;2022-10-16T11:56:32;19.90;99.90
40952;DHT22;26682;51.660;19.338;2022-10-16T11:58:28;19.90;99.90
40952;DHT22;26682;51.660;19.338;2022-10-16T12:00:28;19.80;99.90
40952;DHT22;26682;51.660;19.338;2022-10-16T12:02:28;19.80;99.90
40952;DHT22;26682;51.660;19.338;2022-10-16T12:04:45;19.70;99.90
40952;DHT22;26682;51.660;19.338;2022-10-16T12:06:43;19.60;99.90
40952;DHT22;26682;51.660;19.338;2022-10-16T12:08:30;19.50;99.90
40952;DHT22;26682;51.660;19.338;2022-10-16T12:10:21;19.50;99.90
40952;DHT22;26682;51.660;19.338;2022-10-16T12:12:38;19.40;99.90
40952;DHT22;26682;51.660;19.338;2022-10-16T12:14:39;19.30;99.90
40952;DHT22;26682;51.660;19.338;2022-10-16T12:16:25;19.30;99.90